sensor_id;sensor_type;location;lat;lon;timestamp;P1;durP1;ratioP1;P2;durP2;ratioP2
8254;SDS011;4167;48.162;11.542;2022-08-19T00:02:25;169.37;;;40.13;;
8254;SDS011;4167;48.162;11.542;2022-08-19T00:04:51;126.07;;;38.33;;
8254;SDS011;4167;48.162;11.542;2022-08-19T00:07:19;73.80;;;35.87;;
8254;SDS011;4167;48.162;11.542;2022-08-19T00:09:45;129.70;;;38.77;;
8254;SDS011;4167;48.162;11.542;2022-08-19T00:12:12;157.00;;;39.80;;
8254;SDS011;4167;48.162;11.542;2022-08-19T00:14:40;95.43;;;37.13;;
8254;SDS011;4167;48.162;11.542;2022-08-19T00:17:07;127.87;;;38.00;;
8254;SDS011;4167;48.162;11.542;2022-08-19T00:19:36;110.20;;;37.77;;
8254;SDS011;4167;48.162;11.542;2022-08-19T00:22:03;105.20;;;37.70;;
8254;SDS011;4167;48.162;11.542;2022-08-19T00:24:30;95.47;;;37.63;;
8254;SDS011;4167;48.162;11.542;2022-08-19T00:26:57;135.97;;;39.67;;
8254;SDS011;4167;48.162;11.542;2022-08-19T00:29:24;68.50;;;36.70;;
8254;SDS011;4167;48.162;11.542;2022-08-19T00:31:51;146.90;;;39.87;;
8254;SDS011;4167;48.162;11.542;2022-08-19T00:34:20;85.00;;;37.17;;
8254;SDS011;4167;48.162;11.542;2022-08-19T00:36:48;105.80;;;38.73;;
8254;SDS011;4167;48.162;11.542;2022-08-19T00:39:15;80.47;;;37.47;;
8254;SDS011;4167;48.162;11.542;2022-08-19T00:41:42;161.43;;;41.20;;
8254;SDS011;4167;48.162;11.542;2022-08-19T00:44:12;148.50;;;40.73;;
8254;SDS011;4167;48.162;11.542;2022-08-19T00:46:41;165.17;;;41.13;;
8254;SDS011;4167;48.162;11.542;2022-08-19T00:49:09;75.83;;;36.83;;
8254;SDS011;4167;48.162;11.542;2022-08-19T00:51:39;214.73;;;42.80;;
8254;SDS011;4167;48.162;11.542;2022-08-19T00:54:08;150.87;;;40.33;;
8254;SDS011;4167;48.162;11.542;2022-08-19T00:56:35;122.13;;;38.77;;
8254;SDS011;4167;48.162;11.542;2022-08-19T00:59:02;134.93;;;40.27;;
8254;SDS011;4167;48.162;11.542;2022-08-19T01:01:33;144.60;;;41.00;;
8254;SDS011;4167;48.162;11.542;2022-08-19T01:04:00;129.90;;;39.73;;
8254;SDS011;4167;48.162;11.542;2022-08-19T01:06:26;115.90;;;38.80;;
8254;SDS011;4167;48.162;11.542;2022-08-19T01:08:53;132.63;;;40.37;;
8254;SDS011;4167;48.162;11.542;2022-08-19T01:11:21;77.67;;;37.60;;
8254;SDS011;4167;48.162;11.542;2022-08-19T01:13:48;146.80;;;40.73;;
8254;SDS011;4167;48.162;11.542;2022-08-19T01:16:14;98.07;;;38.77;;
8254;SDS011;4167;48.162;11.542;2022-08-19T01:18:43;113.50;;;40.43;;
8254;SDS011;4167;48.162;11.542;2022-08-19T01:21:10;70.67;;;36.57;;
8254;SDS011;4167;48.162;11.542;2022-08-19T01:23:42;130.10;;;40.27;;
8254;SDS011;4167;48.162;11.542;2022-08-19T01:26:10;245.37;;;45.43;;
8254;SDS011;4167;48.162;11.542;2022-08-19T01:28:39;105.60;;;39.07;;
8254;SDS011;4167;48.162;11.542;2022-08-19T01:31:06;156.03;;;41.67;;
8254;SDS011;4167;48.162;11.542;2022-08-19T01:33:33;94.23;;;39.03;;
8254;SDS011;4167;48.162;11.542;2022-08-19T01:36:03;110.40;;;39.77;;
8254;SDS011;4167;48.162;11.542;2022-08-19T01:38:34;95.67;;;39.17;;
8254;SDS011;4167;48.162;11.542;2022-08-19T01:41:03;93.60;;;39.40;;
8254;SDS011;4167;48.162;11.542;2022-08-19T01:43:30;54.63;;;38.40;;
8254;SDS011;4167;48.162;11.542;2022-08-19T01:45:57;84.90;;;39.90;;
8254;SDS011;4167;48.162;11.542;2022-08-19T01:48:24;91.43;;;39.27;;
8254;SDS011;4167;48.162;11.542;2022-08-19T01:50:50;85.77;;;38.73;;
8254;SDS011;4167;48.162;11.542;2022-08-19T01:53:17;44.03;;;36.13;;
8254;SDS011;4167;48.162;11.542;2022-08-19T01:55:44;117.27;;;39.63;;
8254;SDS011;4167;48.162;11.542;2022-08-19T01:58:12;158.47;;;41.17;;
8254;SDS011;4167;48.162;11.542;2022-08-19T02:00:41;106.83;;;39.57;;
8254;SDS011;4167;48.162;11.542;2022-08-19T02:03:08;73.97;;;37.80;;
8254;SDS011;4167;48.162;11.542;2022-08-19T02:05:36;112.00;;;39.57;;
8254;SDS011;4167;48.162;11.542;2022-08-19T02:08:03;137.73;;;40.33;;
8254;SDS011;4167;48.162;11.542;2022-08-19T02:10:29;94.43;;;38.63;;
8254;SDS011;4167;48.162;11.542;2022-08-19T02:12:57;77.43;;;38.53;;
8254;SDS011;4167;48.162;11.542;2022-08-19T02:15:24;233.97;;;43.80;;
8254;SDS011;4167;48.162;11.542;2022-08-19T02:17:51;165.23;;;42.33;;
8254;SDS011;4167;48.162;11.542;2022-08-19T02:20:18;139.87;;;40.67;;
8254;SDS011;4167;48.162;11.542;2022-08-19T02:22:44;121.33;;;39.37;;
8254;SDS011;4167;48.162;11.542;2022-08-19T02:25:11;93.10;;;38.80;;
8254;SDS011;4167;48.162;11.542;2022-08-19T02:27:39;106.70;;;38.60;;
8254;SDS011;4167;48.162;11.542;2022-08-19T02:30:07;103.30;;;38.63;;
8254;SDS011;4167;48.162;11.542;2022-08-19T02:32:36;73.43;;;36.80;;
8254;SDS011;4167;48.162;11.542;2022-08-19T02:35:03;80.53;;;36.80;;
8254;SDS011;4167;48.162;11.542;2022-08-19T02:37:30;142.73;;;41.13;;
8254;SDS011;4167;48.162;11.542;2022-08-19T02:40:15;91.43;;;37.70;;
8254;SDS011;4167;48.162;11.542;2022-08-19T02:42:42;133.00;;;40.63;;
8254;SDS011;4167;48.162;11.542;2022-08-19T02:45:10;87.63;;;37.90;;
8254;SDS011;4167;48.162;11.542;2022-08-19T02:47:39;123.33;;;38.47;;
8254;SDS011;4167;48.162;11.542;2022-08-19T02:50:06;64.73;;;36.70;;
8254;SDS011;4167;48.162;11.542;2022-08-19T02:52:33;80.57;;;37.50;;
8254;SDS011;4167;48.162;11.542;2022-08-19T02:55:00;112.13;;;39.17;;
8254;SDS011;4167;48.162;11.542;2022-08-19T02:57:27;93.20;;;37.70;;
8254;SDS011;4167;48.162;11.542;2022-08-19T02:59:54;156.83;;;40.47;;
8254;SDS011;4167;48.162;11.542;2022-08-19T03:02:20;175.70;;;41.10;;
8254;SDS011;4167;48.162;11.542;2022-08-19T03:04:48;103.67;;;38.23;;
8254;SDS011;4167;48.162;11.542;2022-08-19T03:07:16;86.87;;;38.17;;
8254;SDS011;4167;48.162;11.542;2022-08-19T03:09:44;117.10;;;39.73;;
8254;SDS011;4167;48.162;11.542;2022-08-19T03:12:10;91.90;;;37.53;;
8254;SDS011;4167;48.162;11.542;2022-08-19T03:14:37;164.43;;;41.40;;
8254;SDS011;4167;48.162;11.542;2022-08-19T03:17:03;62.77;;;36.83;;
8254;SDS011;4167;48.162;11.542;2022-08-19T03:19:30;139.93;;;40.50;;
8254;SDS011;4167;48.162;11.542;2022-08-19T03:21:58;164.60;;;41.17;;
8254;SDS011;4167;48.162;11.542;2022-08-19T03:24:25;172.77;;;41.47;;
8254;SDS011;4167;48.162;11.542;2022-08-19T03:26:52;104.40;;;38.10;;
8254;SDS011;4167;48.162;11.542;2022-08-19T03:29:23;189.50;;;41.13;;
8254;SDS011;4167;48.162;11.542;2022-08-19T03:31:49;107.83;;;38.57;;
8254;SDS011;4167;48.162;11.542;2022-08-19T03:34:17;74.83;;;37.20;;
8254;SDS011;4167;48.162;11.542;2022-08-19T03:36:45;88.60;;;37.23;;
8254;SDS011;4167;48.162;11.542;2022-08-19T03:39:13;122.87;;;39.07;;
8254;SDS011;4167;48.162;11.542;2022-08-19T03:41:41;181.50;;;42.63;;
8254;SDS011;4167;48.162;11.542;2022-08-19T03:44:08;130.23;;;39.63;;
8254;SDS011;4167;48.162;11.542;2022-08-19T03:46:38;104.60;;;38.57;;
8254;SDS011;4167;48.162;11.542;2022-08-19T03:49:04;257.73;;;45.40;;
8254;SDS011;4167;48.162;11.542;2022-08-19T03:51:33;116.33;;;39.80;;
8254;SDS011;4167;48.162;11.542;2022-08-19T03:54:01;72.80;;;36.53;;
8254;SDS011;4167;48.162;11.542;2022-08-19T03:56:32;141.60;;;40.23;;
8254;SDS011;4167;48.162;11.542;2022-08-19T03:58:59;74.57;;;37.53;;
8254;SDS011;4167;48.162;11.542;2022-08-19T04:01:27;146.60;;;39.97;;
8254;SDS011;4167;48.162;11.542;2022-08-19T04:03:54;292.23;;;46.83;;
8254;SDS011;4167;48.162;11.542;2022-08-19T04:06:23;87.63;;;37.67;;
8254;SDS011;4167;48.162;11.542;2022-08-19T04:08:51;221.23;;;44.53;;
8254;SDS011;4167;48.162;11.542;2022-08-19T04:11:20;144.80;;;41.23;;
8254;SDS011;4167;48.162;11.542;2022-08-19T04:13:49;87.10;;;38.33;;
8254;SDS011;4167;48.162;11.542;2022-08-19T04:16:16;150.00;;;41.10;;
8254;SDS011;4167;48.162;11.542;2022-08-19T04:18:44;85.67;;;38.70;;
8254;SDS011;4167;48.162;11.542;2022-08-19T04:21:15;134.80;;;39.50;;
8254;SDS011;4167;48.162;11.542;2022-08-19T04:23:42;89.80;;;38.83;;
8254;SDS011;4167;48.162;11.542;2022-08-19T04:26:11;158.10;;;41.63;;
8254;SDS011;4167;48.162;11.542;2022-08-19T04:28:39;141.43;;;40.53;;
8254;SDS011;4167;48.162;11.542;2022-08-19T04:31:11;116.17;;;39.93;;
8254;SDS011;4167;48.162;11.542;2022-08-19T04:33:39;107.53;;;39.60;;
8254;SDS011;4167;48.162;11.542;2022-08-19T04:36:05;119.73;;;39.63;;
8254;SDS011;4167;48.162;11.542;2022-08-19T04:38:32;171.07;;;42.50;;
8254;SDS011;4167;48.162;11.542;2022-08-19T04:40:59;117.00;;;41.27;;
8254;SDS011;4167;48.162;11.542;2022-08-19T04:43:44;143.77;;;41.90;;
8254;SDS011;4167;48.162;11.542;2022-08-19T04:46:14;187.33;;;43.87;;
8254;SDS011;4167;48.162;11.542;2022-08-19T04:48:41;122.00;;;39.30;;
8254;SDS011;4167;48.162;11.542;2022-08-19T04:51:09;147.70;;;41.50;;
8254;SDS011;4167;48.162;11.542;2022-08-19T04:53:38;180.83;;;43.23;;
8254;SDS011;4167;48.162;11.542;2022-08-19T04:56:06;113.43;;;38.43;;
8254;SDS011;4167;48.162;11.542;2022-08-19T04:58:34;165.13;;;41.87;;
8254;SDS011;4167;48.162;11.542;2022-08-19T05:01:02;245.23;;;46.00;;
8254;SDS011;4167;48.162;11.542;2022-08-19T05:03:30;146.67;;;40.23;;
8254;SDS011;4167;48.162;11.542;2022-08-19T05:05:58;138.80;;;41.70;;
8254;SDS011;4167;48.162;11.542;2022-08-19T05:08:25;226.73;;;45.03;;
8254;SDS011;4167;48.162;11.542;2022-08-19T05:10:53;119.90;;;40.33;;
8254;SDS011;4167;48.162;11.542;2022-08-19T05:13:20;128.70;;;40.07;;
8254;SDS011;4167;48.162;11.542;2022-08-19T05:15:52;177.10;;;41.37;;
8254;SDS011;4167;48.162;11.542;2022-08-19T05:18:19;91.67;;;39.03;;
8254;SDS011;4167;48.162;11.542;2022-08-19T05:21:06;170.17;;;41.77;;
8254;SDS011;4167;48.162;11.542;2022-08-19T05:23:51;146.27;;;41.70;;
8254;SDS011;4167;48.162;11.542;2022-08-19T05:26:17;107.17;;;39.47;;
8254;SDS011;4167;48.162;11.542;2022-08-19T05:28:44;102.97;;;38.70;;
8254;SDS011;4167;48.162;11.542;2022-08-19T05:31:10;154.93;;;42.20;;
8254;SDS011;4167;48.162;11.542;2022-08-19T05:33:37;150.43;;;41.37;;
8254;SDS011;4167;48.162;11.542;2022-08-19T05:36:04;83.30;;;39.10;;
8254;SDS011;4167;48.162;11.542;2022-08-19T05:38:33;102.33;;;39.93;;
8254;SDS011;4167;48.162;11.542;2022-08-19T05:41:00;140.47;;;41.40;;
8254;SDS011;4167;48.162;11.542;2022-08-19T05:43:27;105.63;;;40.33;;
8254;SDS011;4167;48.162;11.542;2022-08-19T05:45:54;99.30;;;40.33;;
8254;SDS011;4167;48.162;11.542;2022-08-19T05:48:20;128.30;;;40.73;;
8254;SDS011;4167;48.162;11.542;2022-08-19T05:50:47;116.87;;;40.93;;
8254;SDS011;4167;48.162;11.542;2022-08-19T05:53:16;122.80;;;40.87;;
8254;SDS011;4167;48.162;11.542;2022-08-19T05:55:43;159.40;;;43.13;;
8254;SDS011;4167;48.162;11.542;2022-08-19T05:58:09;166.77;;;44.57;;
8254;SDS011;4167;48.162;11.542;2022-08-19T06:00:36;144.67;;;42.03;;
8254;SDS011;4167;48.162;11.542;2022-08-19T06:03:03;172.20;;;43.90;;
8254;SDS011;4167;48.162;11.542;2022-08-19T06:05:30;125.50;;;40.37;;
8254;SDS011;4167;48.162;11.542;2022-08-19T06:07:57;413.33;;;52.87;;
8254;SDS011;4167;48.162;11.542;2022-08-19T06:10:25;127.10;;;41.70;;
8254;SDS011;4167;48.162;11.542;2022-08-19T06:12:52;174.27;;;43.07;;
8254;SDS011;4167;48.162;11.542;2022-08-19T06:15:19;186.13;;;44.57;;
8254;SDS011;4167;48.162;11.542;2022-08-19T06:17:51;314.03;;;50.17;;
8254;SDS011;4167;48.162;11.542;2022-08-19T06:20:17;148.03;;;42.60;;
8254;SDS011;4167;48.162;11.542;2022-08-19T06:22:44;202.63;;;47.20;;
8254;SDS011;4167;48.162;11.542;2022-08-19T06:25:12;118.47;;;41.97;;
8254;SDS011;4167;48.162;11.542;2022-08-19T06:27:41;204.17;;;44.70;;
8254;SDS011;4167;48.162;11.542;2022-08-19T06:30:08;144.13;;;41.90;;
8254;SDS011;4167;48.162;11.542;2022-08-19T06:32:37;264.47;;;47.43;;
8254;SDS011;4167;48.162;11.542;2022-08-19T06:35:04;114.80;;;41.53;;
8254;SDS011;4167;48.162;11.542;2022-08-19T06:37:31;295.63;;;48.00;;
8254;SDS011;4167;48.162;11.542;2022-08-19T06:39:58;233.30;;;46.63;;
8254;SDS011;4167;48.162;11.542;2022-08-19T06:42:24;222.77;;;46.03;;
8254;SDS011;4167;48.162;11.542;2022-08-19T06:44:52;131.17;;;41.50;;
8254;SDS011;4167;48.162;11.542;2022-08-19T06:47:20;203.33;;;45.47;;
8254;SDS011;4167;48.162;11.542;2022-08-19T06:49:47;148.13;;;42.90;;
8254;SDS011;4167;48.162;11.542;2022-08-19T06:52:14;206.43;;;53.33;;
8254;SDS011;4167;48.162;11.542;2022-08-19T06:54:41;223.27;;;54.13;;
8254;SDS011;4167;48.162;11.542;2022-08-19T06:57:07;217.57;;;47.57;;
8254;SDS011;4167;48.162;11.542;2022-08-19T06:59:40;197.27;;;45.33;;
8254;SDS011;4167;48.162;11.542;2022-08-19T07:02:07;205.03;;;45.50;;
8254;SDS011;4167;48.162;11.542;2022-08-19T07:04:35;172.67;;;45.00;;
8254;SDS011;4167;48.162;11.542;2022-08-19T07:07:04;154.13;;;44.57;;
8254;SDS011;4167;48.162;11.542;2022-08-19T07:09:33;204.60;;;46.07;;
8254;SDS011;4167;48.162;11.542;2022-08-19T07:12:02;155.73;;;43.33;;
8254;SDS011;4167;48.162;11.542;2022-08-19T07:14:31;134.27;;;43.57;;
8254;SDS011;4167;48.162;11.542;2022-08-19T07:17:03;206.90;;;46.97;;
8254;SDS011;4167;48.162;11.542;2022-08-19T07:19:32;124.25;;;44.00;;
8254;SDS011;4167;48.162;11.542;2022-08-19T07:22:00;173.70;;;45.63;;
8254;SDS011;4167;48.162;11.542;2022-08-19T07:24:27;158.82;;;46.53;;
8254;SDS011;4167;48.162;11.542;2022-08-19T07:26:55;167.37;;;47.20;;
8254;SDS011;4167;48.162;11.542;2022-08-19T07:29:25;153.45;;;46.92;;
8254;SDS011;4167;48.162;11.542;2022-08-19T07:31:52;167.13;;;49.57;;
8254;SDS011;4167;48.162;11.542;2022-08-19T07:34:20;130.93;;;46.35;;
8254;SDS011;4167;48.162;11.542;2022-08-19T07:36:49;161.25;;;48.13;;
8254;SDS011;4167;48.162;11.542;2022-08-19T07:39:17;223.55;;;50.80;;
8254;SDS011;4167;48.162;11.542;2022-08-19T07:41:46;234.60;;;52.45;;
8254;SDS011;4167;48.162;11.542;2022-08-19T07:44:13;104.32;;;46.30;;
8254;SDS011;4167;48.162;11.542;2022-08-19T07:46:43;208.10;;;50.95;;
8254;SDS011;4167;48.162;11.542;2022-08-19T07:49:11;115.85;;;46.53;;
8254;SDS011;4167;48.162;11.542;2022-08-19T07:51:44;134.10;;;47.17;;
8254;SDS011;4167;48.162;11.542;2022-08-19T07:54:12;367.13;;;56.70;;
8254;SDS011;4167;48.162;11.542;2022-08-19T07:56:38;182.50;;;48.30;;
8254;SDS011;4167;48.162;11.542;2022-08-19T07:59:05;209.00;;;51.05;;
8254;SDS011;4167;48.162;11.542;2022-08-19T08:01:32;218.68;;;52.13;;
8254;SDS011;4167;48.162;11.542;2022-08-19T08:03:59;260.42;;;52.67;;
8254;SDS011;4167;48.162;11.542;2022-08-19T08:06:43;131.93;;;47.45;;
8254;SDS011;4167;48.162;11.542;2022-08-19T08:09:29;103.53;;;46.38;;
8254;SDS011;4167;48.162;11.542;2022-08-19T08:11:59;233.10;;;51.25;;
8254;SDS011;4167;48.162;11.542;2022-08-19T08:14:28;95.82;;;45.20;;
8254;SDS011;4167;48.162;11.542;2022-08-19T08:16:56;207.63;;;50.30;;
8254;SDS011;4167;48.162;11.542;2022-08-19T08:19:23;169.87;;;48.07;;
8254;SDS011;4167;48.162;11.542;2022-08-19T08:21:53;150.82;;;47.67;;
8254;SDS011;4167;48.162;11.542;2022-08-19T08:24:20;186.40;;;48.90;;
8254;SDS011;4167;48.162;11.542;2022-08-19T08:26:48;197.27;;;53.33;;
8254;SDS011;4167;48.162;11.542;2022-08-19T08:29:14;136.05;;;49.00;;
8254;SDS011;4167;48.162;11.542;2022-08-19T08:31:41;205.30;;;52.27;;
8254;SDS011;4167;48.162;11.542;2022-08-19T08:34:09;114.87;;;48.80;;
8254;SDS011;4167;48.162;11.542;2022-08-19T08:36:38;228.10;;;51.73;;
8254;SDS011;4167;48.162;11.542;2022-08-19T08:39:07;233.53;;;52.50;;
8254;SDS011;4167;48.162;11.542;2022-08-19T08:41:35;201.03;;;52.77;;
8254;SDS011;4167;48.162;11.542;2022-08-19T08:44:10;130.17;;;49.27;;
8254;SDS011;4167;48.162;11.542;2022-08-19T08:46:39;191.67;;;51.80;;
8254;SDS011;4167;48.162;11.542;2022-08-19T08:49:13;152.37;;;49.30;;
8254;SDS011;4167;48.162;11.542;2022-08-19T08:51:47;184.43;;;50.90;;
8254;SDS011;4167;48.162;11.542;2022-08-19T08:54:19;117.43;;;47.97;;
8254;SDS011;4167;48.162;11.542;2022-08-19T08:56:47;115.27;;;49.10;;
8254;SDS011;4167;48.162;11.542;2022-08-19T08:59:19;178.80;;;51.27;;
8254;SDS011;4167;48.162;11.542;2022-08-19T09:01:47;249.17;;;55.37;;
8254;SDS011;4167;48.162;11.542;2022-08-19T09:04:14;217.03;;;50.67;;
8254;SDS011;4167;48.162;11.542;2022-08-19T09:06:44;186.63;;;51.93;;
8254;SDS011;4167;48.162;11.542;2022-08-19T09:09:17;138.67;;;46.93;;
8254;SDS011;4167;48.162;11.542;2022-08-19T09:11:50;208.50;;;50.47;;
8254;SDS011;4167;48.162;11.542;2022-08-19T09:14:28;112.17;;;49.23;;
8254;SDS011;4167;48.162;11.542;2022-08-19T09:16:59;159.80;;;50.80;;
8254;SDS011;4167;48.162;11.542;2022-08-19T09:19:28;211.52;;;52.40;;
8254;SDS011;4167;48.162;11.542;2022-08-19T09:21:55;163.80;;;47.80;;
8254;SDS011;4167;48.162;11.542;2022-08-19T09:24:21;208.63;;;54.73;;
8254;SDS011;4167;48.162;11.542;2022-08-19T09:26:48;182.07;;;52.67;;
8254;SDS011;4167;48.162;11.542;2022-08-19T09:29:14;232.53;;;54.23;;
8254;SDS011;4167;48.162;11.542;2022-08-19T09:31:42;175.90;;;53.47;;
8254;SDS011;4167;48.162;11.542;2022-08-19T09:34:09;137.95;;;50.15;;
8254;SDS011;4167;48.162;11.542;2022-08-19T09:36:35;233.68;;;53.58;;
8254;SDS011;4167;48.162;11.542;2022-08-19T09:39:04;142.32;;;48.75;;
8254;SDS011;4167;48.162;11.542;2022-08-19T09:41:31;181.40;;;50.40;;
8254;SDS011;4167;48.162;11.542;2022-08-19T09:43:58;178.60;;;52.17;;
8254;SDS011;4167;48.162;11.542;2022-08-19T09:46:26;179.87;;;52.17;;
8254;SDS011;4167;48.162;11.542;2022-08-19T09:48:56;104.43;;;45.93;;
8254;SDS011;4167;48.162;11.542;2022-08-19T09:51:24;132.50;;;46.67;;
8254;SDS011;4167;48.162;11.542;2022-08-19T09:53:53;125.95;;;49.25;;
8254;SDS011;4167;48.162;11.542;2022-08-19T09:56:20;102.35;;;44.88;;
8254;SDS011;4167;48.162;11.542;2022-08-19T09:58:47;136.57;;;45.53;;
8254;SDS011;4167;48.162;11.542;2022-08-19T10:01:18;136.10;;;46.10;;
8254;SDS011;4167;48.162;11.542;2022-08-19T10:03:46;133.20;;;47.72;;
8254;SDS011;4167;48.162;11.542;2022-08-19T10:06:16;123.53;;;47.95;;
8254;SDS011;4167;48.162;11.542;2022-08-19T10:08:45;214.48;;;50.05;;
8254;SDS011;4167;48.162;11.542;2022-08-19T10:11:12;158.68;;;46.97;;
8254;SDS011;4167;48.162;11.542;2022-08-19T10:13:41;299.80;;;54.17;;
8254;SDS011;4167;48.162;11.542;2022-08-19T10:16:09;232.15;;;50.88;;
8254;SDS011;4167;48.162;11.542;2022-08-19T10:18:37;304.80;;;52.45;;
8254;SDS011;4167;48.162;11.542;2022-08-19T10:21:05;151.90;;;45.60;;
8254;SDS011;4167;48.162;11.542;2022-08-19T10:23:37;140.88;;;46.63;;
8254;SDS011;4167;48.162;11.542;2022-08-19T10:26:05;138.65;;;46.90;;
8254;SDS011;4167;48.162;11.542;2022-08-19T10:28:32;139.82;;;45.72;;
8254;SDS011;4167;48.162;11.542;2022-08-19T10:31:04;101.93;;;43.53;;
8254;SDS011;4167;48.162;11.542;2022-08-19T10:33:32;329.77;;;53.30;;
8254;SDS011;4167;48.162;11.542;2022-08-19T10:35:59;247.10;;;48.60;;
8254;SDS011;4167;48.162;11.542;2022-08-19T10:38:27;99.45;;;44.90;;
8254;SDS011;4167;48.162;11.542;2022-08-19T10:40:56;122.35;;;45.70;;
8254;SDS011;4167;48.162;11.542;2022-08-19T10:43:22;108.10;;;44.72;;
8254;SDS011;4167;48.162;11.542;2022-08-19T10:45:51;260.92;;;51.15;;
8254;SDS011;4167;48.162;11.542;2022-08-19T10:48:20;291.02;;;52.53;;
8254;SDS011;4167;48.162;11.542;2022-08-19T10:50:46;173.75;;;46.65;;
8254;SDS011;4167;48.162;11.542;2022-08-19T10:53:38;156.85;;;46.83;;
8254;SDS011;4167;48.162;11.542;2022-08-19T10:56:06;215.18;;;49.53;;
8254;SDS011;4167;48.162;11.542;2022-08-19T10:58:50;133.98;;;44.58;;
8254;SDS011;4167;48.162;11.542;2022-08-19T11:01:17;265.63;;;50.83;;
8254;SDS011;4167;48.162;11.542;2022-08-19T11:03:44;161.77;;;46.65;;
8254;SDS011;4167;48.162;11.542;2022-08-19T11:06:10;130.65;;;44.53;;
8254;SDS011;4167;48.162;11.542;2022-08-19T11:08:37;147.60;;;45.78;;
8254;SDS011;4167;48.162;11.542;2022-08-19T11:11:04;240.45;;;49.10;;
8254;SDS011;4167;48.162;11.542;2022-08-19T11:13:34;205.63;;;47.03;;
8254;SDS011;4167;48.162;11.542;2022-08-19T11:16:04;100.80;;;43.35;;
8254;SDS011;4167;48.162;11.542;2022-08-19T11:18:33;188.63;;;45.65;;
8254;SDS011;4167;48.162;11.542;2022-08-19T11:21:08;188.60;;;45.65;;
8254;SDS011;4167;48.162;11.542;2022-08-19T11:23:35;154.38;;;44.25;;
8254;SDS011;4167;48.162;11.542;2022-08-19T11:26:02;251.43;;;46.22;;
8254;SDS011;4167;48.162;11.542;2022-08-19T11:28:30;171.05;;;43.85;;
8254;SDS011;4167;48.162;11.542;2022-08-19T11:30:56;183.65;;;42.72;;
8254;SDS011;4167;48.162;11.542;2022-08-19T11:33:23;229.43;;;44.08;;
8254;SDS011;4167;48.162;11.542;2022-08-19T11:35:51;115.47;;;39.30;;
8254;SDS011;4167;48.162;11.542;2022-08-19T11:38:17;99.40;;;38.05;;
8254;SDS011;4167;48.162;11.542;2022-08-19T11:40:44;180.30;;;41.28;;
8254;SDS011;4167;48.162;11.542;2022-08-19T11:43:11;531.67;;;55.08;;
8254;SDS011;4167;48.162;11.542;2022-08-19T11:45:39;173.13;;;41.33;;
8254;SDS011;4167;48.162;11.542;2022-08-19T11:48:06;204.50;;;42.92;;
8254;SDS011;4167;48.162;11.542;2022-08-19T11:50:32;139.45;;;39.83;;
8254;SDS011;4167;48.162;11.542;2022-08-19T11:52:59;432.95;;;51.60;;
8254;SDS011;4167;48.162;11.542;2022-08-19T11:55:26;110.07;;;38.30;;
8254;SDS011;4167;48.162;11.542;2022-08-19T11:57:52;237.32;;;43.70;;
8254;SDS011;4167;48.162;11.542;2022-08-19T12:00:19;199.63;;;43.00;;
8254;SDS011;4167;48.162;11.542;2022-08-19T12:02:47;176.95;;;41.03;;
8254;SDS011;4167;48.162;11.542;2022-08-19T12:05:13;188.23;;;42.25;;
8254;SDS011;4167;48.162;11.542;2022-08-19T12:07:40;203.50;;;41.60;;
8254;SDS011;4167;48.162;11.542;2022-08-19T12:10:08;191.73;;;41.33;;
8254;SDS011;4167;48.162;11.542;2022-08-19T12:12:35;216.23;;;42.42;;
8254;SDS011;4167;48.162;11.542;2022-08-19T12:15:08;152.50;;;39.67;;
8254;SDS011;4167;48.162;11.542;2022-08-19T12:17:35;164.25;;;39.85;;
8254;SDS011;4167;48.162;11.542;2022-08-19T12:20:04;155.23;;;39.63;;
8254;SDS011;4167;48.162;11.542;2022-08-19T12:22:31;202.30;;;41.95;;
8254;SDS011;4167;48.162;11.542;2022-08-19T12:24:58;155.80;;;39.85;;
8254;SDS011;4167;48.162;11.542;2022-08-19T12:27:25;76.03;;;36.47;;
8254;SDS011;4167;48.162;11.542;2022-08-19T12:29:52;130.93;;;38.75;;
8254;SDS011;4167;48.162;11.542;2022-08-19T12:32:18;206.50;;;41.50;;
8254;SDS011;4167;48.162;11.542;2022-08-19T12:34:46;327.17;;;46.33;;
8254;SDS011;4167;48.162;11.542;2022-08-19T12:37:14;203.55;;;41.13;;
8254;SDS011;4167;48.162;11.542;2022-08-19T12:39:42;228.88;;;42.20;;
8254;SDS011;4167;48.162;11.542;2022-08-19T12:42:09;220.07;;;41.78;;
8254;SDS011;4167;48.162;11.542;2022-08-19T12:44:36;188.38;;;41.03;;
8254;SDS011;4167;48.162;11.542;2022-08-19T12:47:02;269.92;;;44.53;;
8254;SDS011;4167;48.162;11.542;2022-08-19T12:49:29;169.55;;;40.17;;
8254;SDS011;4167;48.162;11.542;2022-08-19T12:51:58;187.40;;;40.90;;
8254;SDS011;4167;48.162;11.542;2022-08-19T12:54:26;237.85;;;43.70;;
8254;SDS011;4167;48.162;11.542;2022-08-19T12:56:53;230.70;;;42.70;;
8254;SDS011;4167;48.162;11.542;2022-08-19T12:59:20;184.52;;;40.90;;
8254;SDS011;4167;48.162;11.542;2022-08-19T13:01:47;243.85;;;43.80;;
8254;SDS011;4167;48.162;11.542;2022-08-19T13:04:13;192.48;;;41.60;;
8254;SDS011;4167;48.162;11.542;2022-08-19T13:06:40;147.27;;;39.20;;
8254;SDS011;4167;48.162;11.542;2022-08-19T13:09:07;132.35;;;38.90;;
8254;SDS011;4167;48.162;11.542;2022-08-19T13:11:35;129.98;;;39.00;;
8254;SDS011;4167;48.162;11.542;2022-08-19T13:14:03;283.08;;;45.55;;
8254;SDS011;4167;48.162;11.542;2022-08-19T13:16:30;235.45;;;43.38;;
8254;SDS011;4167;48.162;11.542;2022-08-19T13:18:57;258.15;;;43.95;;
8254;SDS011;4167;48.162;11.542;2022-08-19T13:21:25;320.92;;;46.17;;
8254;SDS011;4167;48.162;11.542;2022-08-19T13:23:53;215.07;;;41.70;;
8254;SDS011;4167;48.162;11.542;2022-08-19T13:26:20;191.27;;;40.80;;
8254;SDS011;4167;48.162;11.542;2022-08-19T13:28:48;226.95;;;42.92;;
8254;SDS011;4167;48.162;11.542;2022-08-19T13:31:34;301.75;;;46.05;;
8254;SDS011;4167;48.162;11.542;2022-08-19T13:34:25;173.93;;;40.33;;
8254;SDS011;4167;48.162;11.542;2022-08-19T13:36:53;391.73;;;49.05;;
8254;SDS011;4167;48.162;11.542;2022-08-19T13:39:19;132.73;;;38.55;;
8254;SDS011;4167;48.162;11.542;2022-08-19T13:41:48;278.70;;;44.88;;
8254;SDS011;4167;48.162;11.542;2022-08-19T13:44:16;227.95;;;42.28;;
8254;SDS011;4167;48.162;11.542;2022-08-19T13:46:44;242.85;;;42.95;;
8254;SDS011;4167;48.162;11.542;2022-08-19T13:49:10;234.07;;;43.13;;
8254;SDS011;4167;48.162;11.542;2022-08-19T13:51:37;336.27;;;47.13;;
8254;SDS011;4167;48.162;11.542;2022-08-19T13:54:05;141.23;;;39.08;;
8254;SDS011;4167;48.162;11.542;2022-08-19T13:56:31;112.53;;;38.00;;
8254;SDS011;4167;48.162;11.542;2022-08-19T13:58:58;239.93;;;43.47;;
8254;SDS011;4167;48.162;11.542;2022-08-19T14:01:26;97.18;;;37.70;;
8254;SDS011;4167;48.162;11.542;2022-08-19T14:03:52;302.40;;;47.15;;
8254;SDS011;4167;48.162;11.542;2022-08-19T14:06:19;153.43;;;40.67;;
8254;SDS011;4167;48.162;11.542;2022-08-19T14:08:46;237.70;;;43.53;;
8254;SDS011;4167;48.162;11.542;2022-08-19T14:11:12;84.47;;;37.47;;
8254;SDS011;4167;48.162;11.542;2022-08-19T14:13:39;163.82;;;40.47;;
8254;SDS011;4167;48.162;11.542;2022-08-19T14:16:06;143.40;;;39.67;;
8254;SDS011;4167;48.162;11.542;2022-08-19T14:18:35;250.13;;;43.42;;
8254;SDS011;4167;48.162;11.542;2022-08-19T14:21:03;187.25;;;41.58;;
8254;SDS011;4167;48.162;11.542;2022-08-19T14:23:30;98.65;;;38.08;;
8254;SDS011;4167;48.162;11.542;2022-08-19T14:26:02;254.65;;;43.67;;
8254;SDS011;4167;48.162;11.542;2022-08-19T14:28:29;273.20;;;44.47;;
8254;SDS011;4167;48.162;11.542;2022-08-19T14:30:56;244.95;;;43.80;;